首页
METAR-TAF:

METAR-TAF

机场 :

天津滨海国际机场

天津, 中华人民共和国

纬度: 39-11N, 经度: 117-21E, 海拔: 3米

当前天气观测

该预报发布于39分钟前的01:30 UTC
风速6节,风向东转东南,在南转南东之间变化
温度 1°C
湿度 47%
气压 1039 hPa
能见度10公里或以上
1500米以下无云,无积雨云

METAR: ZBTJ 260130Z 12003MPS 090V150 CAVOK 01/M09 Q1039 NOSIG

时间: 10:09 (02:09 UTC)

预报

该预报发布于5小时和3分钟前的21:06 UTC
预报有效从26日的 00点(UTC)到 26日的 24点(UTC)
风速6节,风向南转南东
能見度: 5000
霾,

TAF: ZBTJ 252106Z 2600/2624 16003MPS 5000 HZ NSC TX04/2606Z TNM04/2621Z

超过4000个机场的气象观测和天气预报(METAR&TAF报告)。

可查询的气象台以黄色和红色小点在地图上表示。

将鼠标移到小点上方,可查看气象台名称。

然后点击查看天气观测和预报。

如需切换地图:点击带黑十字的绿色按钮放大地图;点击带横线的绿色按钮缩小地图;或者点击绿色箭头查看邻近地区的地图。


METAR-TAF: